Urubici, Brazil
Current Conditions -  °F | °C
As of 2:00 PM on Thursday 30 Oct 2014 (Local Time) from SBCM Reporting Station
Few Clouds Few Clouds  
Wind Chill: 88°   Ceiling: Unl
Heat Index: 88°   Visibility: 6mi
Dew Point: 63°   Wind: 15mph
Humidity: 43%   Direction: 210°SSW
Pressure: 29.74"   Gusts: NA
Location:  28.02°S, 49.59°W
Report Text: SBCM 301600Z 21013KT 9999 FEW025 31/17 Q1007
Loading
Personal Weather Stations






























Interactive Weather Map
Tropical Storm Tracking
New forecast layout! Learn more

10-Day Weather Forecast

Advertisements
Track Severe Weather on mobile